sensor_id;sensor_type;location;lat;lon;timestamp;P1;durP1;ratioP1;P2;durP2;ratioP2
56435;SDS011;42335;44.872;20.658;2022-10-29T00:01:46;53.78;;;22.65;;
56435;SDS011;42335;44.872;20.658;2022-10-29T00:04:12;39.47;;;23.67;;
56435;SDS011;42335;44.872;20.658;2022-10-29T00:06:38;55.97;;;27.95;;
56435;SDS011;42335;44.872;20.658;2022-10-29T00:09:04;64.93;;;29.05;;
56435;SDS011;42335;44.872;20.658;2022-10-29T00:11:29;66.47;;;30.45;;
56435;SDS011;42335;44.872;20.658;2022-10-29T00:13:56;65.40;;;29.30;;
56435;SDS011;42335;44.872;20.658;2022-10-29T00:16:24;71.50;;;31.23;;
56435;SDS011;42335;44.872;20.658;2022-10-29T00:18:52;71.18;;;29.38;;
56435;SDS011;42335;44.872;20.658;2022-10-29T00:21:19;69.35;;;31.02;;
56435;SDS011;42335;44.872;20.658;2022-10-29T00:23:47;66.95;;;30.73;;
56435;SDS011;42335;44.872;20.658;2022-10-29T00:26:13;61.85;;;30.25;;
56435;SDS011;42335;44.872;20.658;2022-10-29T00:28:40;69.40;;;30.45;;
56435;SDS011;42335;44.872;20.658;2022-10-29T00:31:07;61.47;;;30.35;;
56435;SDS011;42335;44.872;20.658;2022-10-29T00:33:35;50.92;;;29.17;;
56435;SDS011;42335;44.872;20.658;2022-10-29T00:36:02;57.13;;;31.10;;
56435;SDS011;42335;44.872;20.658;2022-10-29T00:38:31;55.58;;;31.33;;
56435;SDS011;42335;44.872;20.658;2022-10-29T00:40:57;50.80;;;30.25;;
56435;SDS011;42335;44.872;20.658;2022-10-29T00:43:24;48.25;;;28.35;;
56435;SDS011;42335;44.872;20.658;2022-10-29T00:45:54;48.65;;;28.95;;
56435;SDS011;42335;44.872;20.658;2022-10-29T00:48:24;52.60;;;29.60;;
56435;SDS011;42335;44.872;20.658;2022-10-29T00:50:52;54.95;;;28.88;;
56435;SDS011;42335;44.872;20.658;2022-10-29T00:53:20;55.40;;;29.27;;
56435;SDS011;42335;44.872;20.658;2022-10-29T00:55:49;57.63;;;29.35;;
56435;SDS011;42335;44.872;20.658;2022-10-29T00:58:15;57.60;;;27.20;;
56435;SDS011;42335;44.872;20.658;2022-10-29T01:00:42;61.03;;;29.50;;
56435;SDS011;42335;44.872;20.658;2022-10-29T01:03:08;47.33;;;25.92;;
56435;SDS011;42335;44.872;20.658;2022-10-29T01:05:34;45.88;;;27.13;;
56435;SDS011;42335;44.872;20.658;2022-10-29T01:08:01;39.78;;;24.73;;
56435;SDS011;42335;44.872;20.658;2022-10-29T01:10:31;47.40;;;25.35;;
56435;SDS011;42335;44.872;20.658;2022-10-29T01:19:00;27.67;;;22.35;;
56435;SDS011;42335;44.872;20.658;2022-10-29T01:29:34;49.92;;;23.75;;
56435;SDS011;42335;44.872;20.658;2022-10-29T01:32:31;37.95;;;23.25;;
56435;SDS011;42335;44.872;20.658;2022-10-29T01:35:15;39.92;;;25.25;;
56435;SDS011;42335;44.872;20.658;2022-10-29T01:38:13;48.22;;;25.75;;
56435;SDS011;42335;44.872;20.658;2022-10-29T01:45:57;57.45;;;26.50;;
56435;SDS011;42335;44.872;20.658;2022-10-29T01:48:32;50.00;;;27.55;;
56435;SDS011;42335;44.872;20.658;2022-10-29T01:51:07;62.20;;;26.85;;
56435;SDS011;42335;44.872;20.658;2022-10-29T01:53:36;124.35;;;30.95;;
56435;SDS011;42335;44.872;20.658;2022-10-29T01:56:03;127.32;;;31.23;;
56435;SDS011;42335;44.872;20.658;2022-10-29T01:58:29;98.13;;;29.70;;
56435;SDS011;42335;44.872;20.658;2022-10-29T02:01:05;93.75;;;31.55;;
56435;SDS011;42335;44.872;20.658;2022-10-29T02:03:48;90.82;;;28.55;;
56435;SDS011;42335;44.872;20.658;2022-10-29T02:06:46;85.57;;;31.05;;
56435;SDS011;42335;44.872;20.658;2022-10-29T02:09:40;95.50;;;27.00;;
56435;SDS011;42335;44.872;20.658;2022-10-29T02:12:16;72.90;;;28.77;;
56435;SDS011;42335;44.872;20.658;2022-10-29T02:17:20;102.22;;;28.98;;
56435;SDS011;42335;44.872;20.658;2022-10-29T02:19:47;85.13;;;28.70;;
56435;SDS011;42335;44.872;20.658;2022-10-29T02:22:12;107.70;;;28.83;;
56435;SDS011;42335;44.872;20.658;2022-10-29T02:24:38;77.13;;;27.80;;
56435;SDS011;42335;44.872;20.658;2022-10-29T02:27:04;126.93;;;27.75;;
56435;SDS011;42335;44.872;20.658;2022-10-29T02:29:29;92.03;;;28.67;;
56435;SDS011;42335;44.872;20.658;2022-10-29T02:31:55;130.75;;;28.10;;
56435;SDS011;42335;44.872;20.658;2022-10-29T02:34:21;78.60;;;28.50;;
56435;SDS011;42335;44.872;20.658;2022-10-29T02:36:46;50.80;;;28.33;;
56435;SDS011;42335;44.872;20.658;2022-10-29T02:39:12;116.05;;;27.17;;
56435;SDS011;42335;44.872;20.658;2022-10-29T02:41:38;119.75;;;26.42;;
56435;SDS011;42335;44.872;20.658;2022-10-29T02:44:03;62.17;;;26.95;;
56435;SDS011;42335;44.872;20.658;2022-10-29T02:46:29;69.75;;;27.00;;
56435;SDS011;42335;44.872;20.658;2022-10-29T02:49:00;62.05;;;27.48;;
56435;SDS011;42335;44.872;20.658;2022-10-29T02:51:26;59.25;;;25.23;;
56435;SDS011;42335;44.872;20.658;2022-10-29T02:53:52;102.88;;;30.42;;
56435;SDS011;42335;44.872;20.658;2022-10-29T02:56:18;167.68;;;52.70;;
56435;SDS011;42335;44.872;20.658;2022-10-29T02:58:43;100.60;;;36.40;;
56435;SDS011;42335;44.872;20.658;2022-10-29T03:01:09;109.53;;;30.25;;
56435;SDS011;42335;44.872;20.658;2022-10-29T03:03:34;91.88;;;29.85;;
56435;SDS011;42335;44.872;20.658;2022-10-29T03:06:00;116.13;;;30.50;;
56435;SDS011;42335;44.872;20.658;2022-10-29T03:08:26;117.30;;;28.17;;
56435;SDS011;42335;44.872;20.658;2022-10-29T03:10:53;67.97;;;28.60;;
56435;SDS011;42335;44.872;20.658;2022-10-29T03:13:19;75.82;;;28.70;;
56435;SDS011;42335;44.872;20.658;2022-10-29T03:15:44;71.95;;;29.00;;
56435;SDS011;42335;44.872;20.658;2022-10-29T03:18:10;85.68;;;30.20;;
56435;SDS011;42335;44.872;20.658;2022-10-29T03:20:36;113.60;;;29.50;;
56435;SDS011;42335;44.872;20.658;2022-10-29T03:23:02;101.20;;;28.00;;
56435;SDS011;42335;44.872;20.658;2022-10-29T03:25:28;145.68;;;27.17;;
56435;SDS011;42335;44.872;20.658;2022-10-29T03:27:53;69.10;;;27.88;;
56435;SDS011;42335;44.872;20.658;2022-10-29T03:30:20;81.28;;;33.83;;
56435;SDS011;42335;44.872;20.658;2022-10-29T03:32:46;137.32;;;31.30;;
56435;SDS011;42335;44.872;20.658;2022-10-29T03:35:13;88.68;;;28.30;;
56435;SDS011;42335;44.872;20.658;2022-10-29T03:37:40;103.05;;;26.50;;
56435;SDS011;42335;44.872;20.658;2022-10-29T03:40:06;68.40;;;27.90;;
56435;SDS011;42335;44.872;20.658;2022-10-29T03:42:32;62.75;;;25.80;;
56435;SDS011;42335;44.872;20.658;2022-10-29T03:45:01;66.43;;;25.20;;
56435;SDS011;42335;44.872;20.658;2022-10-29T03:47:27;55.22;;;24.77;;
56435;SDS011;42335;44.872;20.658;2022-10-29T03:49:53;49.30;;;24.08;;
56435;SDS011;42335;44.872;20.658;2022-10-29T03:52:19;47.17;;;25.13;;
56435;SDS011;42335;44.872;20.658;2022-10-29T03:54:45;54.65;;;24.10;;
56435;SDS011;42335;44.872;20.658;2022-10-29T03:57:11;53.45;;;27.17;;
56435;SDS011;42335;44.872;20.658;2022-10-29T03:59:37;42.92;;;25.15;;
56435;SDS011;42335;44.872;20.658;2022-10-29T04:02:03;82.72;;;21.83;;
56435;SDS011;42335;44.872;20.658;2022-10-29T04:04:28;83.22;;;46.50;;
56435;SDS011;42335;44.872;20.658;2022-10-29T04:06:54;66.32;;;37.72;;
56435;SDS011;42335;44.872;20.658;2022-10-29T04:09:19;50.70;;;31.42;;
56435;SDS011;42335;44.872;20.658;2022-10-29T04:11:45;41.25;;;24.25;;
56435;SDS011;42335;44.872;20.658;2022-10-29T04:14:11;47.40;;;25.00;;
56435;SDS011;42335;44.872;20.658;2022-10-29T04:16:36;77.55;;;24.25;;
56435;SDS011;42335;44.872;20.658;2022-10-29T04:19:02;48.75;;;24.25;;
56435;SDS011;42335;44.872;20.658;2022-10-29T04:21:28;42.58;;;27.42;;
56435;SDS011;42335;44.872;20.658;2022-10-29T04:23:54;42.25;;;25.77;;
56435;SDS011;42335;44.872;20.658;2022-10-29T04:26:20;44.80;;;27.05;;
56435;SDS011;42335;44.872;20.658;2022-10-29T04:28:49;43.33;;;26.58;;
56435;SDS011;42335;44.872;20.658;2022-10-29T04:31:15;47.50;;;26.52;;
56435;SDS011;42335;44.872;20.658;2022-10-29T04:33:41;39.03;;;24.77;;
56435;SDS011;42335;44.872;20.658;2022-10-29T04:36:07;93.65;;;26.35;;
56435;SDS011;42335;44.872;20.658;2022-10-29T04:38:33;56.10;;;25.58;;
56435;SDS011;42335;44.872;20.658;2022-10-29T04:40:59;51.88;;;25.70;;
56435;SDS011;42335;44.872;20.658;2022-10-29T04:43:26;56.45;;;23.60;;
56435;SDS011;42335;44.872;20.658;2022-10-29T04:45:53;66.97;;;24.63;;
56435;SDS011;42335;44.872;20.658;2022-10-29T04:48:20;51.17;;;25.13;;
56435;SDS011;42335;44.872;20.658;2022-10-29T04:50:46;94.35;;;25.70;;
56435;SDS011;42335;44.872;20.658;2022-10-29T04:53:12;126.03;;;26.63;;
56435;SDS011;42335;44.872;20.658;2022-10-29T04:55:39;52.38;;;26.30;;
56435;SDS011;42335;44.872;20.658;2022-10-29T04:58:05;72.43;;;26.17;;
56435;SDS011;42335;44.872;20.658;2022-10-29T05:00:32;48.88;;;28.05;;
56435;SDS011;42335;44.872;20.658;2022-10-29T05:02:58;45.83;;;29.35;;
56435;SDS011;42335;44.872;20.658;2022-10-29T05:05:24;78.38;;;32.67;;
56435;SDS011;42335;44.872;20.658;2022-10-29T05:07:59;63.55;;;26.20;;
56435;SDS011;42335;44.872;20.658;2022-10-29T05:10:27;58.35;;;26.67;;
56435;SDS011;42335;44.872;20.658;2022-10-29T05:13:00;85.30;;;27.63;;
56435;SDS011;42335;44.872;20.658;2022-10-29T05:15:28;50.95;;;29.33;;
56435;SDS011;42335;44.872;20.658;2022-10-29T05:17:54;61.85;;;33.50;;
56435;SDS011;42335;44.872;20.658;2022-10-29T05:20:21;105.57;;;32.08;;
56435;SDS011;42335;44.872;20.658;2022-10-29T05:22:47;63.63;;;28.77;;
56435;SDS011;42335;44.872;20.658;2022-10-29T05:25:13;50.50;;;27.83;;
56435;SDS011;42335;44.872;20.658;2022-10-29T05:27:39;65.30;;;33.35;;
56435;SDS011;42335;44.872;20.658;2022-10-29T05:30:05;135.68;;;30.38;;
56435;SDS011;42335;44.872;20.658;2022-10-29T05:32:31;64.32;;;30.70;;
56435;SDS011;42335;44.872;20.658;2022-10-29T05:34:57;81.75;;;31.30;;
56435;SDS011;42335;44.872;20.658;2022-10-29T05:37:23;67.20;;;30.50;;
56435;SDS011;42335;44.872;20.658;2022-10-29T05:39:49;56.08;;;31.23;;
56435;SDS011;42335;44.872;20.658;2022-10-29T05:42:15;62.65;;;33.58;;
56435;SDS011;42335;44.872;20.658;2022-10-29T05:44:41;48.40;;;31.92;;
56435;SDS011;42335;44.872;20.658;2022-10-29T05:47:07;61.60;;;31.35;;
56435;SDS011;42335;44.872;20.658;2022-10-29T05:49:32;94.57;;;27.98;;
56435;SDS011;42335;44.872;20.658;2022-10-29T05:51:58;84.20;;;30.60;;
56435;SDS011;42335;44.872;20.658;2022-10-29T05:54:24;177.70;;;100.57;;
56435;SDS011;42335;44.872;20.658;2022-10-29T05:56:49;124.03;;;51.88;;
56435;SDS011;42335;44.872;20.658;2022-10-29T05:59:15;78.82;;;40.40;;
56435;SDS011;42335;44.872;20.658;2022-10-29T06:01:41;358.08;;;189.02;;
56435;SDS011;42335;44.872;20.658;2022-10-29T06:04:06;142.25;;;90.35;;
56435;SDS011;42335;44.872;20.658;2022-10-29T06:06:32;65.72;;;35.67;;
56435;SDS011;42335;44.872;20.658;2022-10-29T06:08:58;54.05;;;32.20;;
56435;SDS011;42335;44.872;20.658;2022-10-29T06:11:24;64.90;;;30.73;;
56435;SDS011;42335;44.872;20.658;2022-10-29T06:13:53;144.05;;;29.02;;
56435;SDS011;42335;44.872;20.658;2022-10-29T06:16:20;102.18;;;30.50;;
56435;SDS011;42335;44.872;20.658;2022-10-29T06:18:45;87.93;;;33.47;;
56435;SDS011;42335;44.872;20.658;2022-10-29T06:21:11;56.05;;;27.50;;
56435;SDS011;42335;44.872;20.658;2022-10-29T06:23:37;69.75;;;27.95;;
56435;SDS011;42335;44.872;20.658;2022-10-29T06:26:02;43.72;;;28.15;;
56435;SDS011;42335;44.872;20.658;2022-10-29T06:28:28;43.08;;;28.35;;
56435;SDS011;42335;44.872;20.658;2022-10-29T06:30:54;50.88;;;27.58;;
56435;SDS011;42335;44.872;20.658;2022-10-29T06:33:21;233.65;;;154.07;;
56435;SDS011;42335;44.872;20.658;2022-10-29T06:35:47;113.90;;;47.67;;
56435;SDS011;42335;44.872;20.658;2022-10-29T06:38:13;69.20;;;26.50;;
56435;SDS011;42335;44.872;20.658;2022-10-29T06:40:40;91.65;;;27.90;;
56435;SDS011;42335;44.872;20.658;2022-10-29T06:43:08;64.25;;;27.67;;
56435;SDS011;42335;44.872;20.658;2022-10-29T06:45:35;56.15;;;27.90;;
56435;SDS011;42335;44.872;20.658;2022-10-29T06:48:02;55.17;;;29.65;;
56435;SDS011;42335;44.872;20.658;2022-10-29T06:50:29;70.50;;;27.70;;
56435;SDS011;42335;44.872;20.658;2022-10-29T06:52:56;52.75;;;28.33;;
56435;SDS011;42335;44.872;20.658;2022-10-29T06:55:26;357.17;;;239.82;;
56435;SDS011;42335;44.872;20.658;2022-10-29T06:57:56;174.85;;;125.63;;
56435;SDS011;42335;44.872;20.658;2022-10-29T07:00:29;71.60;;;44.67;;
56435;SDS011;42335;44.872;20.658;2022-10-29T07:02:56;805.78;;;544.50;;
56435;SDS011;42335;44.872;20.658;2022-10-29T07:05:22;88.45;;;64.43;;
56435;SDS011;42335;44.872;20.658;2022-10-29T07:07:48;39.53;;;26.73;;
56435;SDS011;42335;44.872;20.658;2022-10-29T07:10:18;45.70;;;24.10;;
56435;SDS011;42335;44.872;20.658;2022-10-29T07:12:43;37.78;;;27.00;;
56435;SDS011;42335;44.872;20.658;2022-10-29T07:15:09;36.35;;;23.65;;
56435;SDS011;42335;44.872;20.658;2022-10-29T07:17:36;44.63;;;26.65;;
56435;SDS011;42335;44.872;20.658;2022-10-29T07:20:02;34.30;;;25.45;;
56435;SDS011;42335;44.872;20.658;2022-10-29T07:22:29;34.75;;;23.98;;
56435;SDS011;42335;44.872;20.658;2022-10-29T07:24:55;42.65;;;29.42;;
56435;SDS011;42335;44.872;20.658;2022-10-29T07:27:20;41.78;;;25.92;;
56435;SDS011;42335;44.872;20.658;2022-10-29T07:29:46;128.02;;;26.98;;
56435;SDS011;42335;44.872;20.658;2022-10-29T07:32:12;78.32;;;28.23;;
56435;SDS011;42335;44.872;20.658;2022-10-29T07:34:38;55.53;;;28.45;;
56435;SDS011;42335;44.872;20.658;2022-10-29T07:37:03;41.45;;;27.25;;
56435;SDS011;42335;44.872;20.658;2022-10-29T07:39:29;53.38;;;27.88;;
56435;SDS011;42335;44.872;20.658;2022-10-29T07:41:55;138.40;;;27.88;;
56435;SDS011;42335;44.872;20.658;2022-10-29T07:44:20;47.20;;;27.08;;
56435;SDS011;42335;44.872;20.658;2022-10-29T07:46:46;86.32;;;26.40;;
56435;SDS011;42335;44.872;20.658;2022-10-29T07:49:12;45.50;;;28.15;;
56435;SDS011;42335;44.872;20.658;2022-10-29T07:51:37;49.80;;;27.58;;
56435;SDS011;42335;44.872;20.658;2022-10-29T07:54:03;43.10;;;30.23;;
56435;SDS011;42335;44.872;20.658;2022-10-29T07:56:29;72.20;;;28.88;;
56435;SDS011;42335;44.872;20.658;2022-10-29T07:58:54;55.00;;;28.83;;
56435;SDS011;42335;44.872;20.658;2022-10-29T08:01:20;58.97;;;29.63;;
56435;SDS011;42335;44.872;20.658;2022-10-29T08:03:48;46.75;;;31.85;;
56435;SDS011;42335;44.872;20.658;2022-10-29T08:06:14;68.70;;;31.77;;
56435;SDS011;42335;44.872;20.658;2022-10-29T08:08:40;54.85;;;30.90;;
56435;SDS011;42335;44.872;20.658;2022-10-29T08:11:06;52.28;;;30.15;;
56435;SDS011;42335;44.872;20.658;2022-10-29T08:13:31;68.50;;;31.75;;
56435;SDS011;42335;44.872;20.658;2022-10-29T08:15:57;46.97;;;30.77;;
56435;SDS011;42335;44.872;20.658;2022-10-29T08:18:23;49.53;;;33.13;;
56435;SDS011;42335;44.872;20.658;2022-10-29T08:20:49;51.67;;;32.90;;
56435;SDS011;42335;44.872;20.658;2022-10-29T08:23:15;82.85;;;33.35;;
56435;SDS011;42335;44.872;20.658;2022-10-29T08:25:41;42.13;;;31.35;;
56435;SDS011;42335;44.872;20.658;2022-10-29T08:28:11;48.17;;;30.20;;
56435;SDS011;42335;44.872;20.658;2022-10-29T08:30:38;47.15;;;30.70;;
56435;SDS011;42335;44.872;20.658;2022-10-29T08:33:04;41.28;;;30.05;;
56435;SDS011;42335;44.872;20.658;2022-10-29T08:35:30;59.85;;;30.60;;
56435;SDS011;42335;44.872;20.658;2022-10-29T08:37:56;49.70;;;33.03;;
56435;SDS011;42335;44.872;20.658;2022-10-29T08:45:49;61.65;;;34.15;;
56435;SDS011;42335;44.872;20.658;2022-10-29T08:48:22;53.22;;;34.58;;
56435;SDS011;42335;44.872;20.658;2022-10-29T08:56:27;50.00;;;33.38;;
56435;SDS011;42335;44.872;20.658;2022-10-29T08:59:07;47.78;;;32.92;;
56435;SDS011;42335;44.872;20.658;2022-10-29T09:01:45;50.05;;;34.15;;
56435;SDS011;42335;44.872;20.658;2022-10-29T09:04:21;48.05;;;32.30;;
56435;SDS011;42335;44.872;20.658;2022-10-29T09:10:04;42.75;;;31.98;;
56435;SDS011;42335;44.872;20.658;2022-10-29T09:33:41;55.95;;;31.38;;
56435;SDS011;42335;44.872;20.658;2022-10-29T09:36:11;43.67;;;30.98;;
56435;SDS011;42335;44.872;20.658;2022-10-29T09:38:50;49.03;;;31.05;;
56435;SDS011;42335;44.872;20.658;2022-10-29T09:41:31;48.35;;;33.10;;
56435;SDS011;42335;44.872;20.658;2022-10-29T09:43:58;50.95;;;35.85;;
56435;SDS011;42335;44.872;20.658;2022-10-29T09:46:30;51.60;;;33.53;;
56435;SDS011;42335;44.872;20.658;2022-10-29T09:52:34;58.38;;;38.55;;
56435;SDS011;42335;44.872;20.658;2022-10-29T09:55:03;57.20;;;38.53;;
56435;SDS011;42335;44.872;20.658;2022-10-29T09:57:33;76.40;;;44.95;;
56435;SDS011;42335;44.872;20.658;2022-10-29T10:02:35;75.43;;;47.13;;
56435;SDS011;42335;44.872;20.658;2022-10-29T10:08:09;75.05;;;48.25;;
56435;SDS011;42335;44.872;20.658;2022-10-29T10:13:56;89.35;;;55.58;;
56435;SDS011;42335;44.872;20.658;2022-10-29T10:16:24;85.88;;;51.00;;
56435;SDS011;42335;44.872;20.658;2022-10-29T10:18:53;93.55;;;52.97;;
56435;SDS011;42335;44.872;20.658;2022-10-29T10:23:55;94.45;;;55.55;;
56435;SDS011;42335;44.872;20.658;2022-10-29T10:26:25;101.13;;;58.08;;
56435;SDS011;42335;44.872;20.658;2022-10-29T10:29:14;102.05;;;58.50;;
56435;SDS011;42335;44.872;20.658;2022-10-29T10:31:41;96.70;;;56.30;;
56435;SDS011;42335;44.872;20.658;2022-10-29T10:36:53;91.05;;;52.78;;
56435;SDS011;42335;44.872;20.658;2022-10-29T10:39:29;99.90;;;56.10;;
56435;SDS011;42335;44.872;20.658;2022-10-29T10:42:00;98.50;;;60.78;;
56435;SDS011;42335;44.872;20.658;2022-10-29T10:44:30;86.22;;;51.72;;
56435;SDS011;42335;44.872;20.658;2022-10-29T10:46:57;83.97;;;52.72;;
56435;SDS011;42335;44.872;20.658;2022-10-29T10:49:31;71.85;;;48.17;;
56435;SDS011;42335;44.872;20.658;2022-10-29T10:52:00;75.88;;;49.88;;
56435;SDS011;42335;44.872;20.658;2022-10-29T10:54:39;68.88;;;48.00;;
56435;SDS011;42335;44.872;20.658;2022-10-29T10:59:46;63.05;;;45.33;;
56435;SDS011;42335;44.872;20.658;2022-10-29T11:05:08;53.72;;;39.53;;
56435;SDS011;42335;44.872;20.658;2022-10-29T11:07:41;48.38;;;36.80;;
56435;SDS011;42335;44.872;20.658;2022-10-29T11:10:16;45.63;;;37.55;;
56435;SDS011;42335;44.872;20.658;2022-10-29T11:12:48;45.88;;;36.40;;
56435;SDS011;42335;44.872;20.658;2022-10-29T11:15:28;45.83;;;33.75;;
56435;SDS011;42335;44.872;20.658;2022-10-29T11:18:20;51.83;;;34.75;;
56435;SDS011;42335;44.872;20.658;2022-10-29T11:26:18;37.53;;;29.00;;
56435;SDS011;42335;44.872;20.658;2022-10-29T11:29:02;30.65;;;27.33;;
56435;SDS011;42335;44.872;20.658;2022-10-29T11:42:58;29.30;;;22.10;;
56435;SDS011;42335;44.872;20.658;2022-10-29T11:45:38;28.80;;;20.27;;
56435;SDS011;42335;44.872;20.658;2022-10-29T11:48:39;26.40;;;20.65;;
56435;SDS011;42335;44.872;20.658;2022-10-29T11:57:35;28.05;;;24.25;;
56435;SDS011;42335;44.872;20.658;2022-10-29T12:00:19;27.25;;;23.05;;
56435;SDS011;42335;44.872;20.658;2022-10-29T12:05:18;25.23;;;22.52;;
56435;SDS011;42335;44.872;20.658;2022-10-29T12:21:47;41.13;;;27.88;;
56435;SDS011;42335;44.872;20.658;2022-10-29T12:27:03;42.90;;;28.85;;
56435;SDS011;42335;44.872;20.658;2022-10-29T12:29:39;38.22;;;27.13;;
56435;SDS011;42335;44.872;20.658;2022-10-29T12:32:21;35.63;;;25.55;;
56435;SDS011;42335;44.872;20.658;2022-10-29T12:37:41;34.72;;;24.00;;
56435;SDS011;42335;44.872;20.658;2022-10-29T12:40:15;33.72;;;23.50;;
56435;SDS011;42335;44.872;20.658;2022-10-29T12:42:46;35.60;;;25.55;;
56435;SDS011;42335;44.872;20.658;2022-10-29T12:50:37;28.55;;;23.23;;
56435;SDS011;42335;44.872;20.658;2022-10-29T12:53:27;42.95;;;27.30;;
56435;SDS011;42335;44.872;20.658;2022-10-29T12:56:08;44.65;;;31.20;;
56435;SDS011;42335;44.872;20.658;2022-10-29T12:58:46;46.13;;;32.13;;
56435;SDS011;42335;44.872;20.658;2022-10-29T13:12:06;30.50;;;20.52;;
56435;SDS011;42335;44.872;20.658;2022-10-29T13:14:37;21.08;;;18.40;;
56435;SDS011;42335;44.872;20.658;2022-10-29T13:17:23;24.23;;;17.90;;
56435;SDS011;42335;44.872;20.658;2022-10-29T13:19:58;30.27;;;17.48;;
56435;SDS011;42335;44.872;20.658;2022-10-29T13:30:34;28.75;;;17.85;;
56435;SDS011;42335;44.872;20.658;2022-10-29T13:33:07;25.85;;;17.45;;
56435;SDS011;42335;44.872;20.658;2022-10-29T13:36:34;30.85;;;19.52;;
56435;SDS011;42335;44.872;20.658;2022-10-29T13:49:07;33.97;;;22.10;;
56435;SDS011;42335;44.872;20.658;2022-10-29T13:51:47;44.70;;;25.63;;
56435;SDS011;42335;44.872;20.658;2022-10-29T13:54:28;39.10;;;29.10;;
56435;SDS011;42335;44.872;20.658;2022-10-29T13:59:42;49.42;;;29.83;;
56435;SDS011;42335;44.872;20.658;2022-10-29T14:05:19;46.40;;;31.17;;
56435;SDS011;42335;44.872;20.658;2022-10-29T14:18:31;43.38;;;26.75;;
56435;SDS011;42335;44.872;20.658;2022-10-29T14:21:00;37.08;;;26.98;;
56435;SDS011;42335;44.872;20.658;2022-10-29T14:23:28;46.47;;;32.95;;
56435;SDS011;42335;44.872;20.658;2022-10-29T14:25:56;62.30;;;42.17;;
56435;SDS011;42335;44.872;20.658;2022-10-29T14:28:31;78.55;;;51.92;;
56435;SDS011;42335;44.872;20.658;2022-10-29T14:30:58;145.35;;;89.75;;
56435;SDS011;42335;44.872;20.658;2022-10-29T14:33:27;150.57;;;88.07;;
56435;SDS011;42335;44.872;20.658;2022-10-29T14:36:03;204.88;;;110.88;;
56435;SDS011;42335;44.872;20.658;2022-10-29T14:38:35;248.70;;;125.93;;
56435;SDS011;42335;44.872;20.658;2022-10-29T14:41:07;291.95;;;151.63;;
56435;SDS011;42335;44.872;20.658;2022-10-29T14:43:34;329.02;;;175.45;;
56435;SDS011;42335;44.872;20.658;2022-10-29T14:48:57;339.27;;;190.05;;
56435;SDS011;42335;44.872;20.658;2022-10-29T14:51:35;297.65;;;170.18;;
56435;SDS011;42335;44.872;20.658;2022-10-29T14:54:14;400.83;;;278.83;;
56435;SDS011;42335;44.872;20.658;2022-10-29T14:56:47;351.10;;;222.57;;
56435;SDS011;42335;44.872;20.658;2022-10-29T14:59:17;275.63;;;171.40;;
56435;SDS011;42335;44.872;20.658;2022-10-29T15:01:49;295.80;;;179.57;;
56435;SDS011;42335;44.872;20.658;2022-10-29T15:04:24;306.88;;;186.35;;
56435;SDS011;42335;44.872;20.658;2022-10-29T15:06:54;300.95;;;186.60;;
56435;SDS011;42335;44.872;20.658;2022-10-29T15:09:39;313.25;;;190.40;;
56435;SDS011;42335;44.872;20.658;2022-10-29T15:12:25;316.63;;;187.07;;
56435;SDS011;42335;44.872;20.658;2022-10-29T15:15:06;330.92;;;193.45;;
56435;SDS011;42335;44.872;20.658;2022-10-29T15:17:33;344.05;;;198.98;;
56435;SDS011;42335;44.872;20.658;2022-10-29T15:20:01;312.45;;;198.93;;
56435;SDS011;42335;44.872;20.658;2022-10-29T15:24:57;310.30;;;199.88;;
56435;SDS011;42335;44.872;20.658;2022-10-29T15:27:23;329.23;;;213.57;;
56435;SDS011;42335;44.872;20.658;2022-10-29T15:29:50;319.10;;;207.95;;
56435;SDS011;42335;44.872;20.658;2022-10-29T15:32:17;305.90;;;197.73;;
56435;SDS011;42335;44.872;20.658;2022-10-29T15:34:51;301.92;;;200.80;;
56435;SDS011;42335;44.872;20.658;2022-10-29T15:40:01;329.80;;;208.07;;
56435;SDS011;42335;44.872;20.658;2022-10-29T15:42:36;337.13;;;222.70;;
56435;SDS011;42335;44.872;20.658;2022-10-29T15:47:31;365.40;;;222.75;;
56435;SDS011;42335;44.872;20.658;2022-10-29T15:49:58;362.95;;;220.95;;
56435;SDS011;42335;44.872;20.658;2022-10-29T15:52:25;362.63;;;224.05;;
56435;SDS011;42335;44.872;20.658;2022-10-29T15:54:58;392.23;;;233.52;;
56435;SDS011;42335;44.872;20.658;2022-10-29T15:57:25;378.73;;;233.68;;
56435;SDS011;42335;44.872;20.658;2022-10-29T15:59:51;392.05;;;236.48;;
56435;SDS011;42335;44.872;20.658;2022-10-29T16:02:21;402.33;;;240.45;;
56435;SDS011;42335;44.872;20.658;2022-10-29T16:04:49;390.05;;;241.30;;
56435;SDS011;42335;44.872;20.658;2022-10-29T16:07:14;388.60;;;236.23;;
56435;SDS011;42335;44.872;20.658;2022-10-29T16:09:44;379.85;;;237.02;;
56435;SDS011;42335;44.872;20.658;2022-10-29T16:12:13;406.33;;;241.80;;
56435;SDS011;42335;44.872;20.658;2022-10-29T16:14:39;394.13;;;238.55;;
56435;SDS011;42335;44.872;20.658;2022-10-29T16:17:15;411.15;;;236.85;;
56435;SDS011;42335;44.872;20.658;2022-10-29T16:19:42;391.55;;;238.02;;
56435;SDS011;42335;44.872;20.658;2022-10-29T16:22:10;392.48;;;239.30;;
56435;SDS011;42335;44.872;20.658;2022-10-29T16:25:09;393.10;;;238.13;;
56435;SDS011;42335;44.872;20.658;2022-10-29T16:27:42;382.55;;;232.05;;
56435;SDS011;42335;44.872;20.658;2022-10-29T16:30:08;388.15;;;237.15;;
56435;SDS011;42335;44.872;20.658;2022-10-29T16:32:35;386.38;;;239.80;;
56435;SDS011;42335;44.872;20.658;2022-10-29T16:35:00;409.55;;;249.43;;
56435;SDS011;42335;44.872;20.658;2022-10-29T16:37:31;390.58;;;242.32;;
56435;SDS011;42335;44.872;20.658;2022-10-29T16:39:57;405.17;;;250.27;;
56435;SDS011;42335;44.872;20.658;2022-10-29T16:42:27;407.90;;;248.77;;
56435;SDS011;42335;44.872;20.658;2022-10-29T16:44:58;404.10;;;250.85;;
56435;SDS011;42335;44.872;20.658;2022-10-29T16:47:24;404.92;;;247.98;;
56435;SDS011;42335;44.872;20.658;2022-10-29T16:49:50;407.27;;;255.60;;
56435;SDS011;42335;44.872;20.658;2022-10-29T16:52:16;413.58;;;251.63;;
56435;SDS011;42335;44.872;20.658;2022-10-29T16:54:42;407.95;;;254.68;;
56435;SDS011;42335;44.872;20.658;2022-10-29T16:57:07;400.33;;;246.07;;
56435;SDS011;42335;44.872;20.658;2022-10-29T16:59:33;378.75;;;236.60;;
56435;SDS011;42335;44.872;20.658;2022-10-29T17:01:59;397.48;;;241.13;;
56435;SDS011;42335;44.872;20.658;2022-10-29T17:04:25;438.40;;;291.45;;
56435;SDS011;42335;44.872;20.658;2022-10-29T17:06:50;388.83;;;237.80;;
56435;SDS011;42335;44.872;20.658;2022-10-29T17:09:16;381.02;;;236.15;;
56435;SDS011;42335;44.872;20.658;2022-10-29T17:11:42;370.08;;;228.02;;
56435;SDS011;42335;44.872;20.658;2022-10-29T17:14:08;369.08;;;233.02;;
56435;SDS011;42335;44.872;20.658;2022-10-29T17:16:33;368.83;;;231.88;;
56435;SDS011;42335;44.872;20.658;2022-10-29T17:18:59;367.75;;;234.48;;
56435;SDS011;42335;44.872;20.658;2022-10-29T17:21:25;350.10;;;225.73;;
56435;SDS011;42335;44.872;20.658;2022-10-29T17:23:55;390.17;;;244.57;;